Time;durP1;ratioP1;P1;durP2;ratioP2;P2;SDS_P1;SDS_P2;PMS_P1;PMS_P2;Temp;Humidity;BMP_temperature;BMP_pressure;BME280_temperature;BME280_humidity;BME280_pressure;Samples;Min_cycle;Max_cycle;Signal;HPM_P1;HPM_P2
2023/10/11 00:00:40;;;;;;;;;;;14.30;99.90;;;13.77;100.00;97995.84;5010045;28;20378;-71
2023/10/11 00:03:17;;;;;;;;;;;14.40;99.90;;;13.69;100.00;97998.00;4998852;28;19930;-72
2023/10/11 00:05:46;;;;;;;;;;;14.30;99.90;;;13.66;100.00;98000.72;4994597;28;19929;-73
2023/10/11 00:08:18;;;;;;;;;;;14.30;99.90;;;13.50;100.00;98004.09;4994233;28;19976;-73
2023/10/11 00:10:49;;;;;;;;;;;14.20;99.90;;;13.56;100.00;98001.19;4998563;28;20366;-72
2023/10/11 00:13:16;;;;;;;;;;;14.20;99.90;;;13.59;100.00;98005.41;4995627;28;20366;-73
2023/10/11 00:15:53;;;;;;;;;;;14.20;99.90;;;13.48;100.00;98005.94;4996975;28;19960;-73
2023/10/11 00:18:21;;;;;;;;;;;14.20;99.90;;;13.37;100.00;98005.59;5000000;28;19937;-72
2023/10/11 00:20:52;;;;;;;;;;;14.10;99.90;;;13.49;100.00;98009.38;4997938;28;19937;-72
2023/10/11 00:23:22;;;;;;;;;;;14.10;99.90;;;13.41;100.00;98007.16;4996456;28;20580;-72
2023/10/11 00:25:51;;;;;;;;;;;14.10;99.90;;;13.48;100.00;98012.88;4998887;28;19934;-73
2023/10/11 00:28:24;;;;;;;;;;;14.10;99.90;;;13.36;100.00;98012.56;5000934;28;19937;-72
2023/10/11 00:30:52;;;;;;;;;;;14.10;99.90;;;13.26;100.00;98006.06;5005911;28;19930;-72
2023/10/11 00:33:20;;;;;;;;;;;14.00;99.90;;;13.25;100.00;98008.72;5006176;28;19926;-72
2023/10/11 00:36:05;;;;;;;;;;;13.90;99.90;;;13.14;100.00;98011.84;5003407;28;20029;-72
2023/10/11 00:38:42;;;;;;;;;;;13.90;99.90;;;13.13;100.00;98010.13;5002265;28;20463;-73
2023/10/11 00:41:17;;;;;;;;;;;13.80;99.90;;;13.10;100.00;98007.69;5000642;28;19941;-72
2023/10/11 00:43:50;;;;;;;;;;;13.70;99.90;;;13.00;100.00;98009.88;4937262;28;1857094;-72
2023/10/11 00:46:25;;;;;;;;;;;13.70;99.90;;;13.03;100.00;98003.66;5007702;28;20064;-72
2023/10/11 00:48:55;;;;;;;;;;;13.70;99.90;;;13.06;100.00;97999.16;5014844;28;19937;-72
2023/10/11 00:51:25;;;;;;;;;;;13.70;99.90;;;13.08;100.00;97994.72;5004300;28;19940;-72
2023/10/11 00:53:53;;;;;;;;;;;13.70;99.90;;;13.07;100.00;97997.38;5003856;28;20092;-72
2023/10/11 00:56:26;;;;;;;;;;;13.80;99.90;;;13.06;100.00;97993.09;5000954;28;19930;-73
2023/10/11 00:58:53;;;;;;;;;;;13.70;99.90;;;13.01;100.00;97995.06;5004044;28;19938;-73
2023/10/11 01:01:22;;;;;;;;;;;13.80;99.90;;;12.93;100.00;97993.66;5016082;28;20016;-72
2023/10/11 01:03:51;;;;;;;;;;;13.70;99.90;;;12.68;100.00;97982.63;5006295;28;19925;-72
2023/10/11 01:06:19;;;;;;;;;;;13.60;99.90;;;12.57;100.00;97988.34;5003612;28;19929;-72
2023/10/11 01:08:48;;;;;;;;;;;13.40;99.90;;;12.53;100.00;97985.00;5005829;28;19981;-73
2023/10/11 01:11:15;;;;;;;;;;;13.20;99.90;;;12.37;100.00;97981.41;5002845;28;19930;-72
2023/10/11 01:13:43;;;;;;;;;;;13.20;99.90;;;12.19;100.00;97992.59;5005419;28;19951;-72
2023/10/11 01:16:11;;;;;;;;;;;13.10;99.90;;;12.24;100.00;97991.47;5004755;28;20824;-73
2023/10/11 01:18:38;;;;;;;;;;;13.00;99.90;;;12.17;100.00;97992.66;5002688;28;19934;-73
2023/10/11 01:21:05;;;;;;;;;;;13.00;99.90;;;12.18;100.00;97990.88;5003723;28;19951;-73
2023/10/11 01:23:36;;;;;;;;;;;13.00;99.90;;;12.27;100.00;97996.56;5002544;28;19937;-72
2023/10/11 01:26:07;;;;;;;;;;;13.00;99.90;;;12.32;100.00;97986.81;5001667;28;20114;-72
2023/10/11 01:28:36;;;;;;;;;;;13.00;99.90;;;12.45;100.00;97983.66;5015483;28;20377;-72
2023/10/11 01:31:08;;;;;;;;;;;13.10;99.90;;;12.65;100.00;97982.78;5003266;28;20037;-73
2023/10/11 01:33:41;;;;;;;;;;;13.20;99.90;;;12.73;100.00;97973.72;5003869;28;19945;-72
2023/10/11 01:36:09;;;;;;;;;;;13.30;99.90;;;12.82;100.00;97982.03;4999267;28;19933;-72
2023/10/11 01:38:48;;;;;;;;;;;13.30;99.90;;;12.91;100.00;97973.81;5002770;28;19952;-72
2023/10/11 01:41:18;;;;;;;;;;;13.40;99.90;;;12.96;100.00;97971.84;5002498;28;19929;-72
2023/10/11 01:43:49;;;;;;;;;;;13.50;99.90;;;12.98;100.00;97970.00;5004176;28;19929;-72
2023/10/11 01:46:21;;;;;;;;;;;13.60;99.90;;;13.03;100.00;97961.97;5014861;28;19936;-73
2023/10/11 01:48:48;;;;;;;;;;;13.60;99.90;;;13.06;100.00;97960.06;5004911;28;19929;-72
2023/10/11 01:51:20;;;;;;;;;;;13.60;99.90;;;13.07;100.00;97953.06;4998171;28;19933;-71
2023/10/11 01:53:48;;;;;;;;;;;13.60;99.90;;;13.15;100.00;97948.38;5001030;28;20330;-71
2023/10/11 01:56:15;;;;;;;;;;;13.60;99.90;;;13.19;100.00;97953.34;5005354;28;19936;-72
2023/10/11 01:58:42;;;;;;;;;;;13.70;99.90;;;13.22;100.00;97946.31;5002497;28;20409;-73
2023/10/11 02:01:21;;;;;;;;;;;13.70;99.90;;;13.28;100.00;97951.28;5013345;28;20028;-72
2023/10/11 02:03:51;;;;;;;;;;;13.80;99.90;;;13.19;100.00;97942.09;4999501;28;19940;-70
2023/10/11 02:06:19;;;;;;;;;;;13.70;99.90;;;13.15;100.00;97940.53;5002592;28;19933;-72
2023/10/11 02:08:46;;;;;;;;;;;13.70;99.90;;;13.10;100.00;97937.31;5002067;28;20023;-73
2023/10/11 02:11:16;;;;;;;;;;;13.70;99.90;;;13.08;100.00;97941.75;5005972;28;19929;-73
2023/10/11 02:13:43;;;;;;;;;;;13.60;99.90;;;13.03;100.00;97944.56;5013819;28;19957;-73
2023/10/11 02:16:14;;;;;;;;;;;13.60;99.90;;;13.08;100.00;97933.94;5011171;28;19969;-73
2023/10/11 02:18:42;;;;;;;;;;;13.60;99.90;;;13.06;100.00;97934.00;5016215;28;19929;-73
2023/10/11 02:21:09;;;;;;;;;;;13.60;99.90;;;13.07;100.00;97938.31;4999743;28;19935;-72
2023/10/11 02:23:40;;;;;;;;;;;13.60;99.90;;;13.01;100.00;97938.59;5005599;28;19964;-72
2023/10/11 02:26:12;;;;;;;;;;;13.60;99.90;;;12.95;100.00;97941.47;5002340;28;19944;-72
2023/10/11 02:28:40;;;;;;;;;;;13.60;99.90;;;12.95;100.00;97937.13;5003367;28;20515;-72
2023/10/11 02:31:08;;;;;;;;;;;13.50;99.90;;;12.90;100.00;97941.69;4998298;28;19933;-72
2023/10/11 02:33:35;;;;;;;;;;;13.50;99.90;;;12.85;100.00;97932.41;5002290;28;19930;-72
2023/10/11 02:36:09;;;;;;;;;;;13.50;99.90;;;12.90;100.00;97940.84;5000697;28;19933;-73
2023/10/11 02:38:47;;;;;;;;;;;13.50;99.90;;;12.88;100.00;97934.84;4990025;28;19987;-73
2023/10/11 02:41:20;;;;;;;;;;;13.40;99.90;;;12.82;100.00;97927.31;5011896;28;20372;-73
2023/10/11 02:43:49;;;;;;;;;;;13.40;99.90;;;12.86;100.00;97934.06;5004231;28;19926;-73
2023/10/11 02:46:16;;;;;;;;;;;13.40;99.90;;;12.90;100.00;97930.41;5001238;28;19959;-72
2023/10/11 02:48:48;;;;;;;;;;;13.40;99.90;;;12.86;100.00;97927.09;5000578;28;19929;-73
2023/10/11 02:51:24;;;;;;;;;;;13.40;99.90;;;12.84;100.00;97930.69;5010558;28;20737;-73
2023/10/11 02:53:52;;;;;;;;;;;13.50;99.90;;;12.76;100.00;97933.66;5000596;28;19930;-72
2023/10/11 02:56:19;;;;;;;;;;;13.40;99.90;;;12.84;100.00;97928.97;5000391;28;19934;-72
2023/10/11 02:58:49;;;;;;;;;;;13.40;99.90;;;12.77;100.00;97931.00;5001653;28;20481;-71
2023/10/11 03:01:20;;;;;;;;;;;13.40;99.90;;;12.84;100.00;97930.69;4999837;28;19924;-72
2023/10/11 03:03:48;;;;;;;;;;;13.40;99.90;;;12.86;100.00;97931.47;5014881;28;19925;-72
2023/10/11 03:06:18;;;;;;;;;;;13.40;99.90;;;12.82;100.00;97930.78;5001677;28;20628;-72
2023/10/11 03:08:45;;;;;;;;;;;13.40;99.90;;;12.82;100.00;97924.72;5001273;28;19929;-73
2023/10/11 03:11:15;;;;;;;;;;;13.30;99.90;;;12.66;100.00;97929.81;5004656;28;20518;-73
2023/10/11 03:13:43;;;;;;;;;;;13.40;99.90;;;12.77;100.00;97927.53;5003346;28;20012;-72
2023/10/11 03:16:13;;;;;;;;;;;13.30;99.90;;;12.79;100.00;97928.31;5013705;28;19996;-72
2023/10/11 03:18:41;;;;;;;;;;;13.30;99.90;;;12.71;100.00;97927.81;4999862;28;20365;-73
2023/10/11 03:21:17;;;;;;;;;;;13.30;99.90;;;12.75;100.00;97921.56;5014960;28;19933;-73
2023/10/11 03:23:54;;;;;;;;;;;13.30;99.90;;;12.65;100.00;97918.50;4999815;28;19961;-72
2023/10/11 03:29:05;;;;;;;;;;;13.20;99.90;;;12.41;100.00;97917.03;5013532;28;19976;-72
2023/10/11 03:31:34;;;;;;;;;;;13.10;99.90;;;12.43;100.00;97917.78;4997407;28;19940;-72
2023/10/11 03:34:11;;;;;;;;;;;13.10;99.90;;;12.39;100.00;97911.88;5000900;28;19930;-72
2023/10/11 03:36:51;;;;;;;;;;;13.10;99.90;;;12.53;100.00;97919.09;5001102;28;19944;-72
2023/10/11 03:44:48;;;;;;;;;;;13.10;99.90;;;12.57;100.00;97905.03;5000393;28;19992;-72
2023/10/11 03:47:18;;;;;;;;;;;13.20;99.90;;;12.63;100.00;97909.94;4999959;28;19930;-72
2023/10/11 03:49:51;;;;;;;;;;;13.20;99.90;;;12.67;100.00;97921.06;5001000;28;19925;-73
2023/10/11 03:52:30;;;;;;;;;;;13.20;99.90;;;12.65;100.00;97915.06;4999273;28;19926;-72
2023/10/11 03:55:10;;;;;;;;;;;13.20;99.90;;;12.65;100.00;97915.06;5001732;28;19980;-72
2023/10/11 03:57:41;;;;;;;;;;;13.20;99.90;;;12.58;100.00;97924.09;5009968;28;19930;-73
2023/10/11 04:00:46;;;;;;;;;;;13.20;99.90;;;12.46;100.00;97913.31;5005221;28;20020;-72
2023/10/11 04:03:05;;;;;;;;;;;13.20;99.90;;;12.41;100.00;97912.69;5002364;28;19936;-72
2023/10/11 04:05:40;;;;;;;;;;;13.10;99.90;;;12.33;100.00;97915.59;5013723;28;19929;-72
2023/10/11 04:08:11;;;;;;;;;;;13.00;99.90;;;12.43;100.00;97921.25;5002741;28;19925;-72
2023/10/11 04:10:46;;;;;;;;;;;13.00;99.90;;;12.23;100.00;97914.31;4998070;28;19933;-72
2023/10/11 04:13:18;;;;;;;;;;;13.00;99.90;;;12.13;100.00;97913.03;5002497;28;19929;-72
2023/10/11 04:15:52;;;;;;;;;;;13.00;99.90;;;12.07;100.00;97906.34;5001850;28;20361;-72
2023/10/11 04:23:40;;;;;;;;;;;12.90;99.90;;;11.95;100.00;97906.00;5002463;28;20001;-73
2023/10/11 04:29:17;;;;;;;;;;;12.90;99.90;;;12.05;100.00;97905.56;4961674;28;19933;-72
2023/10/11 04:34:33;;;;;;;;;;;12.80;99.90;;;11.90;100.00;97909.66;4998891;28;19975;-72
2023/10/11 04:37:05;;;;;;;;;;;12.70;99.90;;;11.89;100.00;97905.38;4999652;28;19929;-72
2023/10/11 04:39:34;;;;;;;;;;;12.70;99.90;;;11.87;100.00;97907.19;5000074;28;20008;-72
2023/10/11 04:42:02;;;;;;;;;;;12.70;99.90;;;11.93;100.00;97911.31;4999985;28;20024;-73
2023/10/11 04:44:42;;;;;;;;;;;12.70;99.90;;;11.82;100.00;97911.72;5001746;28;19988;-72
2023/10/11 04:47:10;;;;;;;;;;;12.60;99.90;;;11.84;100.00;97898.66;5001263;28;20459;-72
2023/10/11 04:49:43;;;;;;;;;;;12.70;99.90;;;11.83;100.00;97896.94;5000814;28;19934;-72
2023/10/11 04:52:17;;;;;;;;;;;12.70;99.90;;;11.85;100.00;97900.34;4998941;28;20036;-71
2023/10/11 04:54:53;;;;;;;;;;;12.70;99.90;;;11.85;100.00;97902.94;4998625;28;20020;-72
2023/10/11 04:57:48;;;;;;;;;;;12.70;99.90;;;11.82;100.00;97898.72;5012445;28;19929;-72
2023/10/11 05:00:18;;;;;;;;;;;12.70;99.90;;;11.78;100.00;97909.31;5002087;28;19930;-72
2023/10/11 05:02:58;;;;;;;;;;;12.70;99.90;;;11.78;100.00;97910.16;5000148;28;19925;-72
2023/10/11 05:05:27;;;;;;;;;;;12.70;99.90;;;11.78;100.00;97911.91;4988150;28;19929;-71
2023/10/11 05:08:04;;;;;;;;;;;12.70;99.90;;;11.78;100.00;97904.09;5003802;28;19979;-72
2023/10/11 05:10:43;;;;;;;;;;;12.70;99.90;;;11.92;100.00;97907.00;5000889;28;19943;-73
2023/10/11 05:13:13;;;;;;;;;;;12.60;99.90;;;11.97;100.00;97907.63;5002408;28;20333;-72
2023/10/11 05:15:47;;;;;;;;;;;12.60;99.90;;;12.05;100.00;97910.75;5004183;28;20061;-72
2023/10/11 05:18:23;;;;;;;;;;;12.70;99.90;;;12.05;100.00;97897.75;5004398;28;19964;-72
2023/10/11 05:21:04;;;;;;;;;;;12.70;99.90;;;12.19;100.00;97901.53;5008033;28;19929;-72
2023/10/11 05:26:47;;;;;;;;;;;12.80;99.90;;;12.22;100.00;97901.38;5004511;28;20011;-72
2023/10/11 05:29:31;;;;;;;;;;;12.80;99.90;;;12.26;100.00;97897.72;5005898;28;19969;-71
2023/10/11 05:51:19;;;;;;;;;;;12.90;99.90;;;12.43;100.00;97902.16;5002725;28;19968;-73
2023/10/11 05:53:49;;;;;;;;;;;12.90;99.90;;;12.43;100.00;97903.03;5001878;28;20681;-71
2023/10/11 05:56:22;;;;;;;;;;;13.00;99.90;;;12.45;100.00;97902.94;5000901;28;19930;-72
2023/10/11 05:58:50;;;;;;;;;;;13.10;99.90;;;12.61;100.00;97903.94;5006272;28;19961;-72
2023/10/11 06:01:23;;;;;;;;;;;13.10;99.90;;;12.49;100.00;97909.72;4999751;28;19941;-72
2023/10/11 06:03:51;;;;;;;;;;;13.10;99.90;;;12.53;100.00;97911.28;5003631;28;19929;-72
2023/10/11 06:06:27;;;;;;;;;;;13.10;99.90;;;12.51;100.00;97908.72;5003830;28;19926;-72
2023/10/11 06:08:57;;;;;;;;;;;13.10;99.90;;;12.60;100.00;97907.47;5004996;28;19926;-72
2023/10/11 06:11:29;;;;;;;;;;;13.20;99.90;;;12.64;100.00;97900.38;5004142;28;19925;-72
2023/10/11 06:13:56;;;;;;;;;;;13.20;99.90;;;12.50;100.00;97904.44;5012268;28;19933;-72
2023/10/11 06:16:24;;;;;;;;;;;13.20;99.90;;;12.66;100.00;97914.19;5002305;28;20390;-72
2023/10/11 06:18:57;;;;;;;;;;;13.20;99.90;;;12.78;100.00;97911.00;5001668;28;19926;-72
2023/10/11 06:21:30;;;;;;;;;;;13.30;99.90;;;12.80;100.00;97909.16;5003062;28;20410;-73
2023/10/11 06:24:04;;;;;;;;;;;13.40;99.90;;;12.93;100.00;97909.44;5011436;28;19930;-72
2023/10/11 06:29:07;;;;;;;;;;;13.40;99.90;;;13.04;100.00;97924.56;5002855;28;20393;-72
2023/10/11 06:31:43;;;;;;;;;;;13.50;99.90;;;13.12;100.00;97925.91;5017774;28;19932;-72
2023/10/11 06:34:47;;;;;;;;;;;13.50;99.90;;;13.05;100.00;97929.72;4997198;28;19936;-71
2023/10/11 06:37:06;;;;;;;;;;;13.50;99.90;;;13.22;100.00;97931.50;4999099;28;20345;-72
2023/10/11 06:39:36;;;;;;;;;;;13.60;99.90;;;13.13;100.00;97937.16;5004567;28;19941;-73
2023/10/11 06:42:13;;;;;;;;;;;13.60;99.90;;;13.08;100.00;97937.38;5002270;28;19975;-73
2023/10/11 06:44:41;;;;;;;;;;;13.60;99.90;;;13.15;100.00;97930.97;5001355;28;19984;-73
2023/10/11 06:47:11;;;;;;;;;;;13.70;99.90;;;13.23;100.00;97937.56;4999395;28;19986;-72
2023/10/11 06:49:47;;;;;;;;;;;13.70;99.90;;;13.25;100.00;97935.72;5003580;28;19955;-73
2023/10/11 06:52:17;;;;;;;;;;;13.70;99.90;;;13.32;100.00;97934.56;5014904;28;19929;-72
2023/10/11 06:54:48;;;;;;;;;;;13.80;99.90;;;13.36;100.00;97936.97;5003294;28;20008;-72
2023/10/11 06:57:17;;;;;;;;;;;13.80;99.90;;;13.42;100.00;97930.59;5001244;28;19983;-72
2023/10/11 06:59:44;;;;;;;;;;;13.90;99.90;;;13.45;100.00;97925.22;5002062;28;19929;-72
2023/10/11 07:02:17;;;;;;;;;;;14.00;99.90;;;13.66;100.00;97928.56;5000350;28;20012;-73
2023/10/11 07:04:50;;;;;;;;;;;14.10;99.90;;;13.81;100.00;97927.78;5002400;28;19929;-72
2023/10/11 07:07:18;;;;;;;;;;;14.20;99.90;;;13.88;100.00;97919.66;5001821;28;19929;-73
2023/10/11 07:10:27;;;;;;;;;;;14.40;99.90;;;14.04;100.00;97909.28;5003484;28;19992;-72
2023/10/11 07:12:41;;;;;;;;;;;14.50;99.90;;;14.13;100.00;97909.63;4999998;28;19925;-72
2023/10/11 07:15:09;;;;;;;;;;;14.50;99.90;;;14.02;100.00;97911.97;5001564;28;19944;-72
2023/10/11 07:17:39;;;;;;;;;;;14.60;99.90;;;14.15;100.00;97914.78;5002019;28;19929;-71
2023/10/11 07:20:44;;;;;;;;;;;14.70;99.90;;;14.25;100.00;97913.38;5003458;28;19985;-72
2023/10/11 07:22:57;;;;;;;;;;;14.80;99.90;;;14.42;100.00;97921.19;5013920;28;19976;-72
2023/10/11 07:25:39;;;;;;;;;;;14.90;99.90;;;14.80;100.00;97925.31;5002492;28;19933;-72
2023/10/11 07:28:06;;;;;;;;;;;15.40;99.90;;;15.33;100.00;97921.53;4999791;28;19983;-72
2023/10/11 07:30:37;;;;;;;;;;;16.10;99.90;;;15.71;100.00;97925.50;4999399;28;19964;-73
2023/10/11 07:33:04;;;;;;;;;;;16.70;99.90;;;15.72;100.00;97920.19;5016633;28;19929;-73
2023/10/11 07:35:33;;;;;;;;;;;17.30;99.90;;;16.04;100.00;97920.94;4999918;28;19940;-72
2023/10/11 07:38:00;;;;;;;;;;;17.50;99.90;;;16.44;100.00;97922.91;5001882;28;20372;-72
2023/10/11 07:40:34;;;;;;;;;;;17.60;99.90;;;15.95;100.00;97918.84;5001704;28;19981;-72
2023/10/11 07:43:01;;;;;;;;;;;18.00;99.90;;;16.21;100.00;97921.69;5000668;28;20390;-73
2023/10/11 07:45:28;;;;;;;;;;;18.30;99.90;;;17.03;100.00;97928.88;5014261;28;20025;-73
2023/10/11 07:47:57;;;;;;;;;;;18.20;99.90;;;16.45;100.00;97924.63;5002975;28;19930;-73
2023/10/11 07:50:25;;;;;;;;;;;18.40;99.90;;;16.78;100.00;97928.72;5000492;28;20329;-73
2023/10/11 07:52:53;;;;;;;;;;;18.60;99.90;;;17.44;100.00;97925.41;5005027;28;19987;-72
2023/10/11 07:55:23;;;;;;;;;;;18.60;99.90;;;17.51;100.00;97929.28;5000095;28;20455;-72
2023/10/11 07:57:51;;;;;;;;;;;18.70;99.90;;;17.09;100.00;97925.06;4999160;28;19980;-72
2023/10/11 08:00:18;;;;;;;;;;;18.90;99.90;;;17.67;100.00;97926.50;5001838;28;19973;-72
2023/10/11 08:02:59;;;;;;;;;;;18.70;99.90;;;17.82;100.00;97940.47;5007968;28;19967;-73
2023/10/11 08:05:30;;;;;;;;;;;19.00;99.90;;;18.05;100.00;97925.78;5010202;28;19945;-72
2023/10/11 08:07:57;;;;;;;;;;;19.20;99.90;;;18.43;100.00;97930.22;5000698;28;19968;-73
2023/10/11 08:10:29;;;;;;;;;;;19.10;99.90;;;18.11;100.00;97920.13;5003939;28;19995;-73
2023/10/11 08:12:57;;;;;;;;;;;19.20;99.90;;;18.82;100.00;97915.28;4998897;28;19961;-73
2023/10/11 08:15:25;;;;;;;;;;;19.30;99.90;;;18.17;100.00;97921.47;5000793;28;19973;-72
2023/10/11 08:17:52;;;;;;;;;;;19.60;99.90;;;18.07;100.00;97921.28;5002987;28;20028;-72
2023/10/11 08:20:23;;;;;;;;;;;19.90;99.90;;;18.64;100.00;97920.00;4997824;28;19925;-70
2023/10/11 08:22:55;;;;;;;;;;;19.90;99.90;;;18.38;100.00;97916.53;5001652;28;19926;-73
2023/10/11 08:25:28;;;;;;;;;;;20.20;99.90;;;18.64;100.00;97925.25;5012575;28;19929;-73
2023/10/11 08:28:19;;;;;;;;;;;20.50;99.90;;;18.61;100.00;97933.38;4997598;28;19993;-73
2023/10/11 08:30:47;;;;;;;;;;;20.70;99.90;;;18.77;100.00;97938.41;4988071;28;20599;-73
2023/10/11 08:33:14;;;;;;;;;;;20.70;99.90;;;19.52;100.00;97933.00;5001506;28;19969;-72
2023/10/11 08:35:46;;;;;;;;;;;20.60;99.90;;;19.26;100.00;97940.19;5003186;28;20068;-73
2023/10/11 08:38:16;;;;;;;;;;;20.80;99.90;;;19.01;100.00;97933.22;5000589;28;19936;-73
2023/10/11 08:40:44;;;;;;;;;;;20.90;99.90;;;18.62;100.00;97942.09;4996142;28;19956;-73
2023/10/11 08:43:15;;;;;;;;;;;20.80;99.90;;;18.36;100.00;97935.06;4999261;28;19976;-73
2023/10/11 08:45:48;;;;;;;;;;;20.80;99.90;;;18.48;100.00;97940.41;5013034;28;19976;-73
2023/10/11 08:48:17;;;;;;;;;;;20.60;99.90;;;18.41;100.00;97942.63;5013195;28;20423;-73
2023/10/11 08:50:54;;;;;;;;;;;20.30;99.90;;;17.97;100.00;97943.84;5001126;28;19929;-72
2023/10/11 08:53:22;;;;;;;;;;;20.30;99.90;;;17.69;100.00;97947.41;5021747;28;19929;-72
2023/10/11 08:55:54;;;;;;;;;;;20.30;99.90;;;18.01;100.00;97949.75;5004935;28;19933;-72
2023/10/11 08:58:28;;;;;;;;;;;19.60;99.90;;;17.57;100.00;97956.94;5018414;28;19956;-71
2023/10/11 09:00:58;;;;;;;;;;;19.30;99.90;;;17.66;100.00;97948.47;4991143;28;19926;-72
2023/10/11 09:03:26;;;;;;;;;;;19.00;99.90;;;17.63;100.00;97939.94;5003538;28;19968;-72
2023/10/11 09:05:59;;;;;;;;;;;18.80;99.90;;;17.73;100.00;97934.00;5004941;28;20424;-72
2023/10/11 09:08:31;;;;;;;;;;;18.80;99.90;;;17.82;100.00;97940.47;5005551;28;19937;-71
2023/10/11 09:11:05;;;;;;;;;;;18.80;99.90;;;17.96;100.00;97927.25;5019012;28;19968;-72
2023/10/11 09:13:36;;;;;;;;;;;18.70;99.90;;;18.02;100.00;97925.13;5005367;28;20406;-72
2023/10/11 09:16:13;;;;;;;;;;;18.70;99.90;;;18.11;100.00;97935.03;5002750;28;19933;-72
2023/10/11 09:18:46;;;;;;;;;;;18.70;99.90;;;18.15;100.00;97950.50;5005292;28;19932;-72
2023/10/11 09:21:17;;;;;;;;;;;18.80;99.90;;;18.17;100.00;97939.88;5002772;28;19930;-72
2023/10/11 09:23:49;;;;;;;;;;;18.80;99.90;;;18.35;100.00;97936.00;5002707;28;19932;-72
2023/10/11 09:26:32;;;;;;;;;;;18.70;99.90;;;18.27;100.00;97940.94;5003096;28;20280;-72
2023/10/11 09:29:16;;;;;;;;;;;18.80;99.90;;;18.37;100.00;97941.97;5000746;28;19933;-72
2023/10/11 09:32:04;;;;;;;;;;;18.90;99.90;;;18.46;100.00;97937.88;5003556;28;20384;-72
2023/10/11 09:34:32;;;;;;;;;;;18.90;99.90;;;18.59;100.00;97930.00;5017994;28;20432;-72
2023/10/11 09:37:00;;;;;;;;;;;18.90;99.90;;;18.58;100.00;97936.19;5015452;28;19932;-72
2023/10/11 09:39:29;;;;;;;;;;;19.00;99.90;;;18.47;100.00;97930.84;5005022;28;20384;-72
2023/10/11 09:42:02;;;;;;;;;;;19.10;99.90;;;18.60;100.00;97943.03;5001244;28;19929;-72
2023/10/11 09:44:57;;;;;;;;;;;19.00;99.90;;;18.46;100.00;97942.31;5015381;28;19933;-72
2023/10/11 09:47:31;;;;;;;;;;;19.00;99.90;;;18.68;100.00;97944.28;5016179;28;19929;-72
2023/10/11 09:50:00;;;;;;;;;;;19.10;99.90;;;18.74;100.00;97951.75;5001867;28;19929;-72
2023/10/11 09:52:29;;;;;;;;;;;19.20;99.90;;;18.71;100.00;97954.59;5004686;28;19934;-72
2023/10/11 09:54:58;;;;;;;;;;;19.30;99.90;;;18.78;100.00;97961.13;5005580;28;20004;-72
2023/10/11 09:57:31;;;;;;;;;;;19.20;99.90;;;19.10;100.00;97958.03;5002245;28;19930;-72
2023/10/11 10:00:17;;;;;;;;;;;19.40;99.90;;;19.21;100.00;97951.03;5001464;28;20013;-72
2023/10/11 10:02:50;;;;;;;;;;;19.50;99.90;;;19.38;100.00;97957.72;5001278;28;19935;-72
2023/10/11 10:05:22;;;;;;;;;;;19.60;99.90;;;19.43;100.00;97954.75;5019087;28;19930;-72
2023/10/11 10:07:51;;;;;;;;;;;19.70;99.90;;;19.46;100.00;97940.53;5015259;28;20453;-72
2023/10/11 10:10:26;;;;;;;;;;;19.70;99.90;;;19.46;100.00;97943.19;5000605;28;19983;-72
2023/10/11 10:12:58;;;;;;;;;;;19.90;99.90;;;19.86;100.00;97943.72;5000050;28;19933;-72
2023/10/11 10:15:36;;;;;;;;;;;20.00;99.90;;;19.92;100.00;97937.16;5000204;28;20568;-71
2023/10/11 10:18:03;;;;;;;;;;;20.10;99.90;;;19.92;100.00;97939.78;5003922;28;20331;-72
2023/10/11 10:20:34;;;;;;;;;;;20.20;99.90;;;20.00;100.00;97932.13;5007734;28;19929;-72
2023/10/11 10:23:16;;;;;;;;;;;20.30;99.90;;;20.30;100.00;97941.31;5000493;28;19930;-72
2023/10/11 10:25:48;;;;;;;;;;;20.40;99.90;;;20.35;100.00;97933.91;5001436;28;19936;-72
2023/10/11 10:28:36;;;;;;;;;;;20.60;99.90;;;20.62;100.00;97938.88;5000285;28;19972;-72
2023/10/11 10:31:17;;;;;;;;;;;20.70;99.90;;;20.59;100.00;97929.38;5000517;28;19937;-72
2023/10/11 10:33:50;;;;;;;;;;;20.80;99.90;;;20.48;100.00;97927.56;4998650;28;19964;-72
2023/10/11 10:36:17;;;;;;;;;;;20.90;99.90;;;20.51;100.00;97929.13;5000496;28;19980;-72
2023/10/11 10:41:37;;;;;;;;;;;20.90;99.90;;;20.75;100.00;97931.66;5001940;28;19933;-71
2023/10/11 10:44:06;;;;;;;;;;;21.00;99.90;;;20.82;100.00;97932.88;5000877;28;19968;-72
2023/10/11 10:46:46;;;;;;;;;;;21.00;99.90;;;20.76;100.00;97929.88;5000478;28;19929;-72
2023/10/11 10:49:14;;;;;;;;;;;21.10;99.90;;;20.99;100.00;97925.44;5001927;28;19936;-72
2023/10/11 10:51:47;;;;;;;;;;;21.20;99.90;;;20.93;100.00;97928.53;5005868;28;19929;-71
2023/10/11 10:54:17;;;;;;;;;;;21.20;99.90;;;20.91;100.00;97910.19;5000883;28;20297;-72
2023/10/11 10:56:48;;;;;;;;;;;21.20;99.90;;;21.04;100.00;97915.34;5001660;28;20301;-73
2023/10/11 10:59:20;;;;;;;;;;;21.10;99.90;;;21.06;100.00;97916.06;4988481;28;20199;-73
2023/10/11 11:01:49;;;;;;;;;;;21.20;99.90;;;21.05;100.00;97915.22;5002794;28;19984;-72
2023/10/11 11:04:20;;;;;;;;;;;21.20;99.90;;;20.97;100.00;97920.25;5000210;28;19933;-73
2023/10/11 11:06:49;;;;;;;;;;;21.30;99.90;;;21.12;100.00;97914.72;5013959;28;19930;-73
2023/10/11 11:09:25;;;;;;;;;;;21.40;99.90;;;21.12;100.00;97920.00;5005254;28;19934;-73
2023/10/11 11:12:03;;;;;;;;;;;21.40;99.90;;;21.09;100.00;97918.44;4996305;28;19930;-72
2023/10/11 11:14:30;;;;;;;;;;;21.50;99.90;;;21.30;100.00;97911.44;5002416;28;19926;-72
2023/10/11 11:16:58;;;;;;;;;;;21.60;99.90;;;21.45;100.00;97914.66;5002859;28;19929;-72
2023/10/11 11:19:26;;;;;;;;;;;21.60;99.90;;;21.59;100.00;97915.34;5002256;28;19925;-72
2023/10/11 11:22:11;;;;;;;;;;;21.70;99.90;;;21.49;100.00;97902.06;5000777;28;20020;-72
2023/10/11 11:24:43;;;;;;;;;;;21.80;99.90;;;21.76;100.00;97909.50;5001057;28;19951;-72
2023/10/11 11:27:18;;;;;;;;;;;21.90;99.90;;;21.85;100.00;97911.38;4997553;28;19935;-73
2023/10/11 11:29:49;;;;;;;;;;;22.00;99.90;;;21.72;100.00;97908.06;4983513;28;19940;-71
2023/10/11 11:32:17;;;;;;;;;;;22.00;99.90;;;21.81;100.00;97896.75;5014236;28;19940;-71
2023/10/11 11:35:10;;;;;;;;;;;22.10;99.90;;;21.81;100.00;97890.63;5001151;28;20302;-71
2023/10/11 11:37:40;;;;;;;;;;;22.10;99.90;;;21.93;100.00;97892.22;5000195;28;20313;-71
2023/10/11 11:40:22;;;;;;;;;;;22.10;99.90;;;21.65;100.00;97893.69;5017130;28;19953;-71
2023/10/11 11:42:49;;;;;;;;;;;22.20;99.90;;;21.74;100.00;97881.53;4998824;28;20008;-71
2023/10/11 11:45:17;;;;;;;;;;;22.10;99.90;;;21.74;100.00;97894.75;4997464;28;20417;-69
2023/10/11 11:47:55;;;;;;;;;;;22.00;99.90;;;21.82;100.00;97892.28;4993943;28;19929;-71
2023/10/11 11:50:25;;;;;;;;;;;22.00;99.90;;;21.94;100.00;97878.06;5002420;28;19930;-72
2023/10/11 11:52:52;;;;;;;;;;;22.10;99.90;;;21.81;100.00;97880.88;5001157;28;20363;-70
2023/10/11 11:55:20;;;;;;;;;;;22.10;99.90;;;21.96;100.00;97896.41;5001468;28;19934;-72
2023/10/11 11:57:47;;;;;;;;;;;22.20;99.90;;;22.03;100.00;97876.41;5001913;28;19930;-72
2023/10/11 12:02:58;;;;;;;;;;;22.30;99.90;;;22.02;100.00;97883.50;5011807;28;19926;-72
2023/10/11 12:05:27;;;;;;;;;;;22.40;99.90;;;22.13;100.00;97869.41;5003784;28;19930;-73
2023/10/11 12:07:58;;;;;;;;;;;22.40;99.90;;;22.26;100.00;97866.56;5003322;28;19973;-74
2023/10/11 12:10:25;;;;;;;;;;;22.50;99.90;;;22.33;100.00;97868.56;5013017;28;19929;-73
2023/10/11 12:12:53;;;;;;;;;;;22.50;99.90;;;22.43;100.00;97852.72;4995973;28;19934;-74
2023/10/11 12:15:21;;;;;;;;;;;22.70;99.90;;;22.48;100.00;97861.09;5000939;28;19936;-73
2023/10/11 12:17:54;;;;;;;;;;;22.60;99.90;;;22.63;100.00;97858.94;5001025;28;19992;-72
2023/10/11 12:20:33;;;;;;;;;;;22.70;99.90;;;22.77;100.00;97855.91;5001628;28;19930;-72